Time;durP1;ratioP1;P1;durP2;ratioP2;P2;SDS_P1;SDS_P2;PMS_P1;PMS_P2;Temp;Humidity;BMP_temperature;BMP_pressure;BME280_temperature;BME280_humidity;BME280_pressure;Samples;Min_cycle;Max_cycle;Signal;HPM_P1;HPM_P2
2021/12/01 00:00:35;;;;;;;7.70;4.38;;;;;;;4.44;100.00;98229.34;5065085;28;20096;-67
2021/12/01 00:03:01;;;;;;;6.72;4.13;;;;;;;4.40;100.00;98228.47;5066992;28;20021;-67
2021/12/01 00:05:29;;;;;;;6.03;4.28;;;;;;;4.37;100.00;98218.06;5067034;28;20066;-67
2021/12/01 00:07:55;;;;;;;7.82;4.63;;;;;;;4.39;100.00;98205.03;5068323;28;20048;-67
2021/12/01 00:10:23;;;;;;;9.77;4.45;;;;;;;4.42;100.00;98203.28;5077577;28;20025;-67
2021/12/01 00:12:49;;;;;;;7.93;4.57;;;;;;;4.39;100.00;98198.09;5066866;28;20017;-67
2021/12/01 00:15:14;;;;;;;7.22;4.32;;;;;;;4.31;100.00;98197.22;5066806;28;20024;-67
2021/12/01 00:17:40;;;;;;;7.88;4.60;;;;;;;4.28;100.00;98185.94;5066681;28;20209;-67
2021/12/01 00:20:10;;;;;;;8.43;5.38;;;;;;;4.28;100.00;98180.75;5066757;28;20025;-67
2021/12/01 00:22:37;;;;;;;8.13;5.10;;;;;;;4.31;100.00;98170.31;5066798;28;20020;-67
2021/12/01 00:25:04;;;;;;;8.25;5.03;;;;;;;4.33;100.00;98178.97;5066703;28;20228;-67
2021/12/01 00:27:30;;;;;;;7.82;5.32;;;;;;;4.33;100.00;98169.44;5065377;28;20021;-67
2021/12/01 00:29:56;;;;;;;9.32;5.63;;;;;;;4.30;100.00;98161.63;5066570;28;20059;-67
2021/12/01 00:32:21;;;;;;;10.77;6.03;;;;;;;4.28;100.00;98171.16;5066537;28;20078;-67
2021/12/01 00:34:47;;;;;;;8.93;5.60;;;;;;;4.36;100.00;98159.00;5066672;28;20076;-67
2021/12/01 00:37:12;;;;;;;10.77;5.78;;;;;;;4.32;100.00;98164.22;5066477;28;20024;-67
2021/12/01 00:39:38;;;;;;;9.05;5.57;;;;;;;4.31;100.00;98159.91;5066419;28;20316;-67
2021/12/01 00:42:03;;;;;;;9.73;6.07;;;;;;;4.31;100.00;98155.53;5066377;28;20201;-67
2021/12/01 00:44:30;;;;;;;12.90;6.05;;;;;;;4.32;100.00;98146.00;5066555;28;20029;-67
2021/12/01 00:49:33;;;;;;;8.75;5.55;;;;;;;4.40;100.00;98144.25;5066584;28;20025;-67
2021/12/01 00:52:00;;;;;;;11.60;5.68;;;;;;;4.36;100.00;98138.16;5066091;28;20025;-67
2021/12/01 00:54:25;;;;;;;10.38;5.95;;;;;;;4.39;100.00;98160.72;5066153;28;20044;-67
2021/12/01 00:56:50;;;;;;;9.27;5.63;;;;;;;4.38;100.00;98146.84;5066049;28;20036;-67
2021/12/01 00:59:16;;;;;;;9.65;5.78;;;;;;;4.40;100.00;98147.69;5066073;28;20382;-67
2021/12/01 01:01:43;;;;;;;11.10;5.93;;;;;;;4.42;100.00;98127.72;5065980;28;20025;-67
2021/12/01 01:04:09;;;;;;;8.60;5.40;;;;;;;4.45;100.00;98135.53;5065840;28;20205;-67
2021/12/01 01:06:34;;;;;;;8.68;5.55;;;;;;;4.45;100.00;98122.50;5065849;28;20047;-67
2021/12/01 01:09:01;;;;;;;11.38;5.97;;;;;;;4.42;100.00;98135.56;5066122;28;20025;-67
2021/12/01 01:16:54;;;;;;;11.07;6.28;;;;;;;4.46;100.00;98126.84;5065572;28;20036;-67
2021/12/01 01:19:20;;;;;;;9.88;6.20;;;;;;;4.46;100.00;98129.44;5065654;28;20060;-67
2021/12/01 01:21:49;;;;;;;10.95;6.63;;;;;;;4.48;100.00;98122.50;5065594;28;20025;-67
2021/12/01 01:24:15;;;;;;;11.25;6.72;;;;;;;4.50;100.00;98132.91;5065854;28;20025;-67
2021/12/01 01:26:41;;;;;;;11.10;6.40;;;;;;;4.50;100.00;98133.78;5065443;28;20051;-67
2021/12/01 01:29:07;;;;;;;10.90;6.32;;;;;;;4.53;100.00;98119.00;5065481;28;20033;-67
2021/12/01 01:31:33;;;;;;;12.70;7.07;;;;;;;4.53;100.00;98113.78;5065725;28;20025;-67
2021/12/01 01:33:58;;;;;;;16.60;7.57;;;;;;;4.50;100.00;98125.94;5065608;28;20331;-67
2021/12/01 01:36:25;;;;;;;17.23;7.32;;;;;;;4.57;100.00;98121.59;5065349;28;20051;-67
2021/12/01 01:38:51;;;;;;;16.88;8.00;;;;;;;4.53;100.00;98126.81;5065322;28;20051;-67
2021/12/01 01:41:17;;;;;;;11.30;7.60;;;;;;;4.56;100.00;98119.88;5065256;28;20029;-67
2021/12/01 01:43:44;;;;;;;14.98;8.35;;;;;;;4.53;100.00;98108.59;5065188;28;20039;-67
2021/12/01 01:46:11;;;;;;;13.70;8.20;;;;;;;4.55;100.00;98112.06;5065369;28;20074;-67
2021/12/01 01:48:53;;;;;;;16.52;8.60;;;;;;;4.58;100.00;98106.84;5065031;28;20032;-67
2021/12/01 01:51:24;;;;;;;13.88;7.93;;;;;;;4.61;100.00;98096.38;5065147;28;20029;-67
2021/12/01 01:53:53;;;;;;;15.35;8.73;;;;;;;4.64;100.00;98098.97;5064948;28;20088;-67
2021/12/01 01:56:18;;;;;;;16.95;9.35;;;;;;;4.66;100.00;98092.03;5064943;28;20263;-67
2021/12/01 01:58:44;;;;;;;16.98;8.95;;;;;;;4.63;100.00;98094.63;5064952;28;20021;-67
2021/12/01 02:01:16;;;;;;;16.73;9.65;;;;;;;4.64;100.00;98081.59;5064886;28;20032;-67
2021/12/01 02:03:45;;;;;;;17.98;9.65;;;;;;;4.66;100.00;98084.19;5064796;28;20338;-67
2021/12/01 02:06:12;;;;;;;16.75;8.52;;;;;;;4.75;100.00;98094.59;5064762;28;20032;-67
2021/12/01 02:08:40;;;;;;;17.55;9.05;;;;;;;4.70;100.00;98085.91;5064606;28;20013;-67
2021/12/01 02:11:10;;;;;;;19.40;9.20;;;;;;;4.69;100.00;98073.75;5064921;28;20029;-67
2021/12/01 02:13:36;;;;;;;15.32;9.77;;;;;;;4.72;100.00;98078.97;5064600;28;20021;-67
2021/12/01 02:16:02;;;;;;;14.93;9.15;;;;;;;4.65;100.00;98079.88;5064464;28;20099;-67
2021/12/01 02:18:28;;;;;;;15.10;8.25;;;;;;;4.65;100.00;98083.31;5064573;28;20041;-67
2021/12/01 02:21:05;;;;;;;15.93;9.25;;;;;;;4.67;100.00;98075.50;5064742;28;20375;-67
2021/12/01 02:23:32;;;;;;;14.68;8.45;;;;;;;4.66;100.00;98058.13;5064038;28;20028;-67
2021/12/01 02:25:57;;;;;;;16.38;8.90;;;;;;;4.60;100.00;98063.38;5064430;28;20025;-67
2021/12/01 02:28:23;;;;;;;18.27;9.23;;;;;;;4.54;100.00;98059.06;5064280;28;20031;-67
2021/12/01 02:30:48;;;;;;;20.15;9.85;;;;;;;4.57;100.00;98063.38;5064362;28;20028;-67
2021/12/01 02:33:14;;;;;;;15.57;9.32;;;;;;;4.56;100.00;98056.47;5064573;28;20213;-67
2021/12/01 02:35:39;;;;;;;17.48;8.45;;;;;;;4.64;100.00;98039.91;5064147;28;20320;-67
2021/12/01 02:38:05;;;;;;;13.02;8.65;;;;;;;4.62;100.00;98051.22;5064239;28;20028;-67
2021/12/01 02:40:30;;;;;;;15.80;8.20;;;;;;;4.66;100.00;98053.81;5064148;28;20316;-67
2021/12/01 02:42:56;;;;;;;12.32;7.43;;;;;;;4.76;100.00;98044.16;5064092;28;20033;-67
2021/12/01 02:45:21;;;;;;;12.88;7.22;;;;;;;4.73;100.00;98023.34;5064063;28;20025;-67
2021/12/01 02:47:46;;;;;;;12.52;7.50;;;;;;;4.72;100.00;98037.25;5063932;28;20027;-67
2021/12/01 02:50:12;;;;;;;11.75;7.97;;;;;;;4.63;100.00;98022.53;5064004;28;20033;-67
2021/12/01 02:52:37;;;;;;;12.15;7.95;;;;;;;4.68;100.00;98027.72;5063993;28;20024;-67
2021/12/01 02:55:05;;;;;;;13.23;7.97;;;;;;;4.67;100.00;98028.56;5063986;28;20036;-67
2021/12/01 02:57:46;;;;;;;14.85;8.43;;;;;;;4.65;100.00;98017.31;5063817;28;20021;-67
2021/12/01 03:00:12;;;;;;;15.13;7.65;;;;;;;4.67;100.00;98013.81;5063942;28;20029;-67
2021/12/01 03:02:38;;;;;;;15.07;7.57;;;;;;;4.75;100.00;98017.25;5063859;28;20190;-67
2021/12/01 03:05:05;;;;;;;13.48;7.82;;;;;;;4.74;100.00;98009.44;5063806;28;20021;-67
2021/12/01 03:07:32;;;;;;;11.45;7.22;;;;;;;4.78;100.00;98006.78;5064817;28;20067;-67
2021/12/01 03:09:57;;;;;;;11.43;7.28;;;;;;;4.75;100.00;98001.63;5074946;28;20029;-67
2021/12/01 03:12:27;;;;;;;13.40;8.13;;;;;;;4.71;100.00;97988.63;5063744;28;20021;-67
2021/12/01 03:14:53;;;;;;;12.77;8.02;;;;;;;4.66;100.00;97985.16;5063714;28;20028;-67
2021/12/01 03:17:18;;;;;;;12.20;6.93;;;;;;;4.68;100.00;97970.38;5063536;28;20036;-67
2021/12/01 03:19:43;;;;;;;12.55;7.18;;;;;;;4.69;100.00;97980.81;5063741;28;20032;-67
2021/12/01 03:22:13;;;;;;;14.75;7.05;;;;;;;4.69;100.00;97954.75;5063762;28;20025;-67
2021/12/01 03:24:39;;;;;;;9.80;6.82;;;;;;;4.73;100.00;97968.59;5063681;28;20025;-67
2021/12/01 03:27:04;;;;;;;9.52;6.35;;;;;;;4.73;100.00;97960.78;5063713;28;20088;-67
2021/12/01 03:29:30;;;;;;;11.95;6.75;;;;;;;4.73;100.00;97939.94;5063597;28;20312;-67
2021/12/01 03:31:55;;;;;;;11.48;6.68;;;;;;;4.75;100.00;97930.38;5063597;28;20084;-67
2021/12/01 03:34:22;;;;;;;13.52;6.25;;;;;;;4.69;100.00;97933.88;5063583;28;20025;-67
2021/12/01 03:36:47;;;;;;;10.02;5.88;;;;;;;4.72;100.00;97927.78;5067375;28;20025;-67
2021/12/01 03:39:12;;;;;;;12.35;5.93;;;;;;;4.73;100.00;97903.44;5067572;28;20348;-67
2021/12/01 03:41:38;;;;;;;11.90;6.13;;;;;;;4.73;100.00;97924.28;5067793;28;20028;-67
2021/12/01 03:44:04;;;;;;;12.88;6.57;;;;;;;4.77;100.00;97911.22;5067490;28;20039;-67
2021/12/01 03:46:29;;;;;;;11.18;5.90;;;;;;;4.79;100.00;97919.03;5067386;28;20055;-67
2021/12/01 03:48:55;;;;;;;9.85;5.68;;;;;;;4.79;100.00;97908.59;5067379;28;20376;-67
2021/12/01 03:51:20;;;;;;;13.10;5.55;;;;;;;4.84;100.00;97906.84;5067355;28;20024;-67
2021/12/01 03:53:45;;;;;;;9.65;4.95;;;;;;;4.85;100.00;97893.78;5067545;28;20032;-67
2021/12/01 03:56:11;;;;;;;11.00;4.85;;;;;;;4.93;99.65;97906.75;5067286;28;20202;-67
2021/12/01 03:58:36;;;;;;;12.13;4.90;;;;;;;4.95;99.83;97904.97;5067296;28;20021;-67
2021/12/01 04:01:02;;;;;;;8.10;4.85;;;;;;;4.95;99.95;97894.56;5067342;28;20080;-67
2021/12/01 04:03:27;;;;;;;10.80;5.18;;;;;;;4.94;100.00;97877.19;5067020;28;20020;-67
2021/12/01 04:05:52;;;;;;;9.05;4.47;;;;;;;4.96;99.65;97859.78;5067041;28;20243;-67
2021/12/01 04:08:18;;;;;;;9.02;4.03;;;;;;;4.94;99.46;97856.34;5066948;28;20036;-67
2021/12/01 04:10:43;;;;;;;7.63;5.00;;;;;;;5.02;99.20;97859.72;5066999;28;20025;-67
2021/12/01 04:13:08;;;;;;;9.63;4.68;;;;;;;4.97;99.49;97856.31;5066976;28;20343;-67
2021/12/01 04:15:34;;;;;;;8.55;4.70;;;;;;;4.99;99.84;97836.28;5066885;28;20031;-67
2021/12/01 04:17:59;;;;;;;10.57;4.30;;;;;;;5.04;99.65;97839.72;5066717;28;20067;-67
2021/12/01 04:20:24;;;;;;;8.50;4.88;;;;;;;5.06;99.26;97837.97;5066766;28;20078;-67
2021/12/01 04:22:50;;;;;;;9.60;4.28;;;;;;;5.06;98.97;97835.34;5066770;28;20244;-67
2021/12/01 04:25:16;;;;;;;9.70;3.97;;;;;;;5.06;99.13;97819.72;5066701;28;20025;-67
2021/12/01 04:27:41;;;;;;;8.30;4.28;;;;;;;5.05;98.96;97802.31;5066568;28;20036;-67
2021/12/01 04:30:09;;;;;;;9.95;4.50;;;;;;;5.06;99.81;97814.50;5066645;28;20033;-67
2021/12/01 04:32:34;;;;;;;10.68;4.28;;;;;;;5.04;99.65;97795.38;5066822;28;20025;-67
2021/12/01 04:35:01;;;;;;;8.40;4.47;;;;;;;5.03;99.63;97780.63;5066459;28;20031;-67
2021/12/01 04:37:26;;;;;;;6.78;4.38;;;;;;;5.07;99.17;97796.22;5066506;28;20028;-67
2021/12/01 04:39:52;;;;;;;7.22;4.10;;;;;;;5.06;99.05;97793.63;5066482;28;20221;-67
2021/12/01 04:42:18;;;;;;;6.75;3.53;;;;;;;5.09;99.07;97772.75;5066281;28;20037;-67
2021/12/01 04:44:43;;;;;;;5.60;3.85;;;;;;;5.16;98.78;97785.66;5066340;28;20367;-67
2021/12/01 04:47:13;;;;;;;10.73;3.90;;;;;;;5.19;98.98;97801.28;5072908;28;20048;-67
2021/12/01 04:49:39;;;;;;;9.82;3.50;;;;;;;5.17;98.76;97776.97;5064582;28;20276;-67
2021/12/01 04:52:06;;;;;;;8.48;3.90;;;;;;;5.09;99.18;97789.22;5065589;28;20028;-67
2021/12/01 04:54:33;;;;;;;6.05;3.80;;;;;;;5.13;98.79;97769.19;5065209;28;20247;-67
2021/12/01 04:57:00;;;;;;;7.50;3.58;;;;;;;5.12;98.79;97751.84;5065408;28;20024;-67
2021/12/01 04:59:25;;;;;;;8.55;4.28;;;;;;;5.09;99.76;97757.09;5065140;28;20025;-67
2021/12/01 05:01:53;;;;;;;9.10;3.50;;;;;;;5.09;99.43;97768.38;5064659;28;20025;-67
2021/12/01 05:04:19;;;;;;;6.53;3.88;;;;;;;5.15;99.48;97770.03;5064927;28;20020;-67
2021/12/01 05:06:44;;;;;;;6.50;3.83;;;;;;;5.15;99.67;97768.28;5064911;28;20100;-67
2021/12/01 05:09:09;;;;;;;10.57;4.03;;;;;;;5.03;99.52;97759.75;5065225;28;20066;-67
2021/12/01 05:11:35;;;;;;;8.75;4.15;;;;;;;5.13;100.00;97764.00;5067886;28;20055;-67
2021/12/01 05:14:01;;;;;;;8.57;4.10;;;;;;;5.18;99.55;97756.94;5084553;28;20090;-67
2021/12/01 05:16:26;;;;;;;6.03;3.60;;;;;;;5.12;100.00;97757.06;5084749;28;20101;-67
2021/12/01 05:18:51;;;;;;;5.32;3.47;;;;;;;5.17;100.00;97747.41;5084879;28;20193;-67
2021/12/01 05:21:17;;;;;;;8.07;4.10;;;;;;;5.13;100.00;97737.91;5084770;28;20036;-67
2021/12/01 05:23:43;;;;;;;6.20;3.92;;;;;;;5.16;100.00;97737.88;5084749;28;20020;-67
2021/12/01 05:26:10;;;;;;;8.32;4.15;;;;;;;5.11;100.00;97729.22;5084653;28;20024;-67
2021/12/01 05:28:36;;;;;;;6.82;4.05;;;;;;;5.15;100.00;97736.13;5084675;28;20016;-67
2021/12/01 05:31:01;;;;;;;5.57;3.67;;;;;;;5.18;100.00;97725.66;5084593;28;20146;-67
2021/12/01 05:33:27;;;;;;;7.18;3.75;;;;;;;5.19;100.00;97727.41;5084551;28;20016;-67
2021/12/01 05:35:52;;;;;;;6.40;3.92;;;;;;;5.13;100.00;97722.25;5077500;28;20024;-67
2021/12/01 05:38:17;;;;;;;6.72;3.70;;;;;;;5.16;100.00;97732.66;5084690;28;20031;-67
2021/12/01 05:40:43;;;;;;;4.72;3.53;;;;;;;5.19;100.00;97711.75;5078909;28;20055;-67
2021/12/01 05:43:08;;;;;;;12.45;3.70;;;;;;;5.18;100.00;97715.22;5065164;28;20059;-67
2021/12/01 05:45:34;;;;;;;5.60;3.33;;;;;;;5.16;100.00;97707.41;5065176;28;20216;-67
2021/12/01 05:48:00;;;;;;;7.28;3.60;;;;;;;5.18;100.00;97705.66;5065057;28;20331;-67
2021/12/01 05:50:25;;;;;;;7.32;4.03;;;;;;;5.25;100.00;97696.03;5065102;28;20032;-67
2021/12/01 05:52:51;;;;;;;5.35;2.97;;;;;;;5.26;100.00;97682.09;5065075;28;20260;-67
2021/12/01 05:55:16;;;;;;;7.45;3.83;;;;;;;5.23;100.00;97676.91;5064965;28;20320;-67
2021/12/01 05:57:41;;;;;;;5.35;3.47;;;;;;;5.23;100.00;97682.13;5064267;28;20021;-67
2021/12/01 06:00:10;;;;;;;4.00;2.78;;;;;;;5.30;100.00;97668.13;5065181;28;20040;-67
2021/12/01 06:02:36;;;;;;;5.10;3.10;;;;;;;5.30;100.00;97678.53;5064834;28;20021;-67
2021/12/01 06:05:01;;;;;;;6.05;3.10;;;;;;;5.32;100.00;97676.78;5064741;28;20031;-67
2021/12/01 06:07:27;;;;;;;6.95;3.05;;;;;;;5.34;100.00;97669.78;5064939;28;20067;-67
2021/12/01 06:09:52;;;;;;;6.15;3.38;;;;;;;5.34;100.00;97664.56;5064732;28;20025;-67
2021/12/01 06:12:17;;;;;;;4.05;2.95;;;;;;;5.36;100.00;97647.16;5064687;28;20021;-67
2021/12/01 06:14:44;;;;;;;5.85;3.53;;;;;;;5.42;100.00;97641.84;5064706;28;20025;-67
2021/12/01 06:17:10;;;;;;;5.30;3.35;;;;;;;5.33;100.00;97631.53;5064496;28;20040;-67
2021/12/01 06:19:39;;;;;;;6.10;3.50;;;;;;;5.37;100.00;97628.00;5064506;28;20029;-67
2021/12/01 06:22:06;;;;;;;5.75;3.33;;;;;;;5.40;100.00;97623.59;5064460;28;20024;-67
2021/12/01 06:24:31;;;;;;;6.95;4.30;;;;;;;5.39;100.00;97616.69;5064421;28;20025;-67
2021/12/01 06:26:57;;;;;;;5.05;3.40;;;;;;;5.41;100.00;97620.09;5064320;28;20085;-67
2021/12/01 06:29:22;;;;;;;3.42;2.53;;;;;;;5.46;100.00;97617.44;5064602;28;20024;-67
2021/12/01 06:31:48;;;;;;;5.65;2.67;;;;;;;5.47;100.00;97596.53;5064304;28;20024;-67
2021/12/01 06:34:13;;;;;;;7.60;3.40;;;;;;;5.43;100.00;97601.81;5064280;28;20091;-67
2021/12/01 06:36:38;;;;;;;5.38;3.17;;;;;;;5.46;100.00;97612.22;5064266;28;20048;-67
2021/12/01 06:39:05;;;;;;;4.63;2.88;;;;;;;5.40;100.00;97601.88;5064187;28;20324;-67
2021/12/01 06:41:30;;;;;;;4.70;2.80;;;;;;;5.47;100.00;97590.47;5064137;28;20275;-67
2021/12/01 06:43:56;;;;;;;5.03;2.80;;;;;;;5.47;100.00;97587.84;5064119;28;20021;-67
2021/12/01 06:46:22;;;;;;;4.63;2.90;;;;;;;5.52;100.00;97584.28;5064070;28;20031;-67
2021/12/01 06:48:47;;;;;;;6.03;2.72;;;;;;;5.44;100.00;97582.69;5063979;28;20017;-67
2021/12/01 06:51:12;;;;;;;5.38;2.83;;;;;;;5.48;100.00;97576.53;5064019;28;20096;-67
2021/12/01 06:53:38;;;;;;;7.88;2.95;;;;;;;5.45;100.00;97580.06;5063971;28;20086;-67
2021/12/01 06:56:03;;;;;;;6.50;2.53;;;;;;;5.50;100.00;97577.34;5063942;28;20020;-67
2021/12/01 06:58:29;;;;;;;5.55;3.28;;;;;;;5.53;100.00;97572.06;5063948;28;20354;-67
2021/12/01 07:00:54;;;;;;;6.75;3.35;;;;;;;5.49;100.00;97576.50;5063881;28;20028;-67
2021/12/01 07:03:19;;;;;;;4.53;2.63;;;;;;;5.53;100.00;97566.84;5063829;28;20046;-67
2021/12/01 07:05:44;;;;;;;5.68;2.60;;;;;;;5.55;100.00;97573.78;5063887;28;20044;-67
2021/12/01 07:08:10;;;;;;;4.10;2.30;;;;;;;5.54;100.00;97559.00;5063860;28;20347;-67
2021/12/01 07:10:35;;;;;;;5.95;2.80;;;;;;;5.55;100.00;97559.88;5063728;28;20025;-67
2021/12/01 07:13:00;;;;;;;4.43;2.40;;;;;;;5.61;100.00;97549.34;5063799;28;20009;-67
2021/12/01 07:15:26;;;;;;;6.60;2.40;;;;;;;5.61;100.00;97559.78;5063770;28;20387;-67
2021/12/01 07:17:51;;;;;;;3.58;1.95;;;;;;;5.57;100.00;97543.28;5063609;28;20025;-67
2021/12/01 07:20:16;;;;;;;3.28;2.20;;;;;;;5.62;100.00;97538.00;5063740;28;20028;-67
2021/12/01 07:22:42;;;;;;;6.05;2.00;;;;;;;5.64;100.00;97531.00;5063761;28;20027;-67
2021/12/01 07:25:08;;;;;;;2.33;1.83;;;;;;;5.67;100.00;97531.81;5063952;28;20051;-67
2021/12/01 07:27:33;;;;;;;2.72;1.77;;;;;;;5.64;100.00;97528.41;5063567;28;20194;-67
2021/12/01 07:29:58;;;;;;;3.58;1.83;;;;;;;5.69;100.00;97534.38;5063686;28;20032;-67
2021/12/01 07:32:24;;;;;;;2.80;1.75;;;;;;;5.68;100.00;97514.41;5063596;28;20082;-67
2021/12/01 07:34:50;;;;;;;2.53;1.90;;;;;;;5.60;100.00;97521.53;5063831;28;20028;-67
2021/12/01 07:37:17;;;;;;;5.60;1.65;;;;;;;5.73;100.00;97515.19;5063611;28;20080;-67
2021/12/01 07:39:44;;;;;;;5.38;1.50;;;;;;;5.75;100.00;97516.00;5063814;28;20269;-67
2021/12/01 07:42:10;;;;;;;1.95;1.50;;;;;;;5.80;100.00;97515.06;5063533;28;20221;-67
2021/12/01 07:44:35;;;;;;;1.90;1.33;;;;;;;5.78;100.00;97501.16;5063505;28;20066;-67
2021/12/01 07:47:01;;;;;;;3.88;1.55;;;;;;;5.80;100.00;97493.31;5063356;28;20024;-67
2021/12/01 07:49:26;;;;;;;1.45;1.13;;;;;;;5.82;100.00;97491.56;5063403;28;20029;-67
2021/12/01 07:51:52;;;;;;;2.97;1.75;;;;;;;5.80;100.00;97493.31;5063681;28;20021;-67
2021/12/01 07:54:18;;;;;;;1.60;1.23;;;;;;;5.86;100.00;97495.84;5063438;28;20104;-67
2021/12/01 07:56:43;;;;;;;7.30;1.60;;;;;;;5.91;100.00;97497.47;5063424;28;20040;-67
2021/12/01 07:59:11;;;;;;;1.92;1.38;;;;;;;5.94;100.00;97481.75;5063600;28;20082;-67
2021/12/01 08:01:36;;;;;;;2.95;1.48;;;;;;;6.02;100.00;97489.44;5063328;28;20016;-67
2021/12/01 08:04:01;;;;;;;2.45;1.38;;;;;;;6.01;100.00;97466.81;5063231;28;20388;-67
2021/12/01 08:06:30;;;;;;;5.43;1.50;;;;;;;6.04;100.00;97471.94;5063282;28;20063;-67
2021/12/01 08:08:59;;;;;;;1.95;1.10;;;;;;;6.02;100.00;97464.16;5063149;28;20056;-67
2021/12/01 08:11:24;;;;;;;1.70;1.27;;;;;;;6.06;100.00;97464.97;5063513;28;20048;-67
2021/12/01 08:13:50;;;;;;;1.30;0.98;;;;;;;6.08;100.00;97444.91;5063256;28;20072;-67
2021/12/01 08:16:15;;;;;;;1.92;1.20;;;;;;;6.08;100.00;97444.91;5062957;28;20041;-67
2021/12/01 08:18:40;;;;;;;2.08;1.00;;;;;;;6.11;100.00;97444.84;5063263;28;20092;-67
2021/12/01 08:21:05;;;;;;;1.55;1.15;;;;;;;6.13;100.00;97424.75;5064085;28;20021;-67
2021/12/01 08:23:31;;;;;;;1.17;0.95;;;;;;;6.15;100.00;97428.22;5066756;28;20021;-67
2021/12/01 08:25:56;;;;;;;1.20;0.80;;;;;;;6.17;100.00;97429.03;5066702;28;20028;-67
2021/12/01 08:28:21;;;;;;;1.67;1.00;;;;;;;6.20;100.00;97423.72;5066592;28;20017;-67
2021/12/01 08:30:47;;;;;;;1.52;0.93;;;;;;;6.24;100.00;97394.91;5066628;28;20067;-67
2021/12/01 08:33:12;;;;;;;1.48;1.00;;;;;;;6.32;100.00;97395.59;5066578;28;20272;-67
2021/12/01 08:35:39;;;;;;;4.50;1.27;;;;;;;6.31;100.00;97398.25;5066529;28;20021;-67
2021/12/01 08:38:04;;;;;;;2.85;0.98;;;;;;;6.32;100.00;97411.28;5066490;28;20122;-67
2021/12/01 08:40:30;;;;;;;1.33;0.88;;;;;;;6.37;100.00;97412.00;5066705;28;20285;-67
2021/12/01 08:42:55;;;;;;;0.65;0.65;;;;;;;6.35;100.00;97405.09;5066382;28;20025;-67
2021/12/01 08:45:20;;;;;;;2.15;0.85;;;;;;;6.38;100.00;97405.03;5066598;28;20025;-67
2021/12/01 08:47:48;;;;;;;1.27;0.70;;;;;;;6.42;100.00;97401.47;5066292;28;20232;-67
2021/12/01 08:50:13;;;;;;;3.10;0.70;;;;;;;6.47;100.00;97399.63;5066222;28;20028;-67
2021/12/01 08:52:39;;;;;;;1.17;0.82;;;;;;;6.56;100.00;97394.19;5066234;28;20116;-67
2021/12/01 08:55:05;;;;;;;1.98;0.80;;;;;;;6.49;100.00;97392.63;5066466;28;20032;-67
2021/12/01 08:57:31;;;;;;;1.33;0.63;;;;;;;6.48;100.00;97396.09;5066096;28;20028;-67
2021/12/01 08:59:56;;;;;;;1.42;0.77;;;;;;;6.49;100.00;97374.31;5066135;28;20031;-67
2021/12/01 09:02:22;;;;;;;2.55;0.70;;;;;;;6.58;100.00;97377.56;5066097;28;20029;-67
2021/12/01 09:04:50;;;;;;;0.88;0.52;;;;;;;6.59;100.00;97360.13;5065924;28;20020;-67
2021/12/01 09:07:16;;;;;;;0.80;0.60;;;;;;;6.62;100.00;97362.69;5065906;28;20071;-67
2021/12/01 09:09:41;;;;;;;1.02;0.90;;;;;;;6.61;100.00;97348.72;5065924;28;20342;-67
2021/12/01 09:12:07;;;;;;;3.22;0.60;;;;;;;6.58;100.00;97337.47;5065880;28;20021;-67
2021/12/01 09:14:32;;;;;;;1.10;0.70;;;;;;;6.61;100.00;97334.78;5065832;28;20220;-67
2021/12/01 09:16:58;;;;;;;2.97;0.70;;;;;;;6.64;100.00;97340.81;5065650;28;20398;-67
2021/12/01 09:19:24;;;;;;;1.08;0.73;;;;;;;6.62;100.00;97336.53;5065708;28;20029;-67
2021/12/01 09:21:49;;;;;;;0.40;0.40;;;;;;;6.67;100.00;97334.66;5065716;28;20043;-67
2021/12/01 09:24:15;;;;;;;3.90;0.90;;;;;;;6.63;100.00;97307.75;5065905;28;20060;-67
2021/12/01 09:26:41;;;;;;;3.63;0.73;;;;;;;6.65;100.00;97307.69;5065490;28;20048;-67
2021/12/01 09:29:07;;;;;;;2.20;0.90;;;;;;;6.70;100.00;97324.13;5065793;28;20025;-67
2021/12/01 09:31:32;;;;;;;2.45;0.60;;;;;;;6.63;100.00;97312.09;5065568;28;20079;-67
2021/12/01 09:33:58;;;;;;;2.55;0.55;;;;;;;6.72;100.00;97321.47;5064347;28;20035;-67
2021/12/01 09:36:23;;;;;;;0.95;0.45;;;;;;;6.69;100.00;97304.09;5065685;28;20103;-67
2021/12/01 09:38:49;;;;;;;1.77;0.60;;;;;;;6.71;100.00;97302.31;5065630;28;20063;-67
2021/12/01 09:41:14;;;;;;;1.17;0.70;;;;;;;6.67;100.00;97292.81;5065271;28;20027;-67
2021/12/01 09:43:40;;;;;;;1.17;0.63;;;;;;;6.68;100.00;97284.09;5065274;28;20092;-67
2021/12/01 09:46:09;;;;;;;4.40;0.70;;;;;;;6.72;100.00;97296.19;5065176;28;20079;-67
2021/12/01 09:48:35;;;;;;;0.80;0.70;;;;;;;6.76;100.00;97274.28;5065092;28;20021;-67
2021/12/01 09:51:01;;;;;;;0.60;0.52;;;;;;;6.69;100.00;97277.97;5065087;28;20032;-67
2021/12/01 09:53:27;;;;;;;1.25;0.57;;;;;;;6.72;100.00;97277.88;5065106;28;20028;-67
2021/12/01 09:55:52;;;;;;;4.38;0.88;;;;;;;6.72;100.00;97270.03;5065016;28;20260;-67
2021/12/01 09:58:23;;;;;;;0.35;0.35;;;;;;;6.78;100.00;97269.03;5065013;28;20055;-67
2021/12/01 10:00:52;;;;;;;1.83;0.60;;;;;;;6.72;100.00;97254.34;5065215;28;20088;-67
2021/12/01 10:03:17;;;;;;;0.93;0.80;;;;;;;6.72;100.00;97237.81;5064741;28;20033;-67
2021/12/01 10:05:45;;;;;;;1.08;0.60;;;;;;;6.71;100.00;97247.44;5064817;28;20032;-67
2021/12/01 10:08:24;;;;;;;0.88;0.68;;;;;;;6.74;100.00;97242.09;5064721;28;20017;-67
2021/12/01 10:10:51;;;;;;;3.30;0.80;;;;;;;6.74;100.00;97228.16;5064784;28;20029;-67
2021/12/01 10:13:29;;;;;;;1.80;0.52;;;;;;;6.83;100.00;97223.53;5064735;28;20052;-67
2021/12/01 10:15:58;;;;;;;2.63;0.85;;;;;;;6.78;100.00;97217.59;5064712;28;20020;-67
2021/12/01 10:18:24;;;;;;;0.95;0.77;;;;;;;6.84;100.00;97221.78;5064654;28;20344;-67
2021/12/01 10:21:04;;;;;;;2.50;0.82;;;;;;;6.89;100.00;97199.00;5064626;28;20165;-67
2021/12/01 10:23:29;;;;;;;1.92;0.75;;;;;;;6.81;100.00;97193.97;5064498;28;20046;-67
2021/12/01 10:25:56;;;;;;;2.85;0.70;;;;;;;6.87;100.00;97188.59;5064468;28;20052;-67
2021/12/01 10:28:35;;;;;;;0.93;0.50;;;;;;;6.92;100.00;97194.53;5064278;28;20095;-67
2021/12/01 10:31:00;;;;;;;1.55;0.60;;;;;;;6.89;100.00;97168.47;5064602;28;20056;-67
2021/12/01 10:33:28;;;;;;;1.75;0.50;;;;;;;6.88;100.00;97173.72;5064316;28;20025;-67
2021/12/01 10:35:54;;;;;;;1.55;0.73;;;;;;;6.86;100.00;97173.78;5064538;28;20028;-67
2021/12/01 10:38:29;;;;;;;1.58;0.60;;;;;;;6.87;100.00;97172.91;5064357;28;20020;-67
2021/12/01 10:41:19;;;;;;;0.70;0.70;;;;;;;6.89;100.00;97167.63;5064217;28;20217;-67
2021/12/01 10:43:47;;;;;;;1.05;0.77;;;;;;;6.97;100.00;97150.81;5063917;28;20198;-67
2021/12/01 10:46:18;;;;;;;1.25;0.80;;;;;;;6.97;100.00;97147.31;5064118;28;20052;-67
2021/12/01 10:49:08;;;;;;;1.08;0.82;;;;;;;6.94;100.00;97153.50;5064321;28;20020;-67
2021/12/01 10:51:37;;;;;;;2.35;0.88;;;;;;;7.00;100.00;97140.25;5063772;28;20045;-67
2021/12/01 10:54:04;;;;;;;0.75;0.75;;;;;;;6.98;100.00;97133.34;5064307;28;20029;-67
2021/12/01 10:56:31;;;;;;;1.35;0.80;;;;;;;6.94;100.00;97118.66;5064013;28;20200;-67
2021/12/01 10:59:08;;;;;;;0.85;0.80;;;;;;;7.02;100.00;97114.06;5064028;28;20316;-67
2021/12/01 11:01:34;;;;;;;1.00;0.77;;;;;;;6.99;100.00;97114.97;5063946;28;20066;-67
2021/12/01 11:03:59;;;;;;;1.13;0.70;;;;;;;6.98;100.00;97110.66;5063852;28;20179;-67
2021/12/01 11:06:25;;;;;;;0.63;0.63;;;;;;;6.99;100.00;97091.44;5063887;28;20317;-67
2021/12/01 11:08:57;;;;;;;4.07;0.77;;;;;;;7.04;100.00;97089.56;5063763;28;20044;-67
2021/12/01 11:11:25;;;;;;;0.70;0.70;;;;;;;7.04;100.00;97093.94;5064101;28;20048;-67
2021/12/01 11:13:51;;;;;;;1.85;0.98;;;;;;;7.00;100.00;97087.94;5064034;28;20190;-67
2021/12/01 11:16:18;;;;;;;0.70;0.60;;;;;;;7.10;100.00;97089.38;5063697;28;20067;-67
2021/12/01 11:18:47;;;;;;;1.35;1.00;;;;;;;7.04;100.00;97084.34;5063784;28;20040;-67
2021/12/01 11:21:18;;;;;;;2.53;1.20;;;;;;;7.08;100.00;97096.41;5063700;28;20021;-67
2021/12/01 11:23:51;;;;;;;0.90;0.80;;;;;;;7.09;100.00;97081.59;5063703;28;20040;-67
2021/12/01 11:26:26;;;;;;;2.75;1.00;;;;;;;7.10;100.00;97078.91;5063847;28;20032;-67
2021/12/01 11:28:57;;;;;;;1.05;0.95;;;;;;;7.06;100.00;97071.22;5063556;28;20025;-67
2021/12/01 11:31:32;;;;;;;0.88;0.77;;;;;;;7.06;100.00;97069.47;5063883;28;20317;-67
2021/12/01 11:34:00;;;;;;;2.92;1.10;;;;;;;7.18;100.00;97061.22;5063903;28;20017;-68
2021/12/01 11:36:32;;;;;;;1.40;1.13;;;;;;;7.11;100.00;97059.69;5062439;28;20373;-67